createdAt,value
2018-07-09T00:01:10.386Z,101737.75
2018-07-09T00:03:38.736Z,101737.59
2018-07-09T00:06:07.106Z,101735.27
2018-07-09T00:08:35.460Z,101739.27
2018-07-09T00:11:05.966Z,101744.47
2018-07-09T00:13:35.217Z,101742.02
2018-07-09T00:16:03.851Z,101743.69
2018-07-09T00:18:32.895Z,101742.38
2018-07-09T00:21:01.248Z,101745.55
2018-07-09T00:23:29.591Z,101747.09
2018-07-09T00:25:58.312Z,101745.59
2018-07-09T00:28:27.319Z,101750.92
2018-07-09T00:30:55.708Z,101750.92
2018-07-09T00:33:24.051Z,101752.09
2018-07-09T00:35:52.418Z,101760.23
2018-07-09T00:38:21.252Z,101755.10
2018-07-09T00:40:49.656Z,101761.78
2018-07-09T00:43:18.039Z,101754.80
2018-07-09T00:45:46.362Z,101754.31
2018-07-09T00:48:14.811Z,101756.48
2018-07-09T00:50:43.221Z,101751.67
2018-07-09T00:53:11.581Z,101755.48
2018-07-09T00:55:39.985Z,101754.48
2018-07-09T00:58:08.308Z,101756.67
2018-07-09T01:00:36.779Z,101761.34
2018-07-09T01:03:05.210Z,101770.17
2018-07-09T01:05:33.547Z,101759.36
2018-07-09T01:08:01.937Z,101764.34
2018-07-09T01:10:30.306Z,101757.70
2018-07-09T01:12:58.636Z,101756.04
2018-07-09T01:15:26.993Z,101760.87
2018-07-09T01:17:55.336Z,101749.73
2018-07-09T01:20:23.882Z,101750.56
2018-07-09T01:22:52.469Z,101751.87
2018-07-09T01:25:20.808Z,101750.89
2018-07-09T01:27:49.177Z,101749.70
2018-07-09T01:30:17.575Z,101744.88
2018-07-09T01:32:45.936Z,101744.56
2018-07-09T01:35:14.768Z,101738.56
2018-07-09T01:37:43.553Z,101734.07
2018-07-09T01:40:12.121Z,101732.75
2018-07-09T01:42:40.480Z,101731.75
2018-07-09T01:45:08.811Z,101722.56
2018-07-09T01:47:37.179Z,101722.42
2018-07-09T01:50:05.631Z,101723.72
2018-07-09T01:52:33.989Z,101729.88
2018-07-09T01:55:02.445Z,101726.86
2018-07-09T01:57:30.777Z,101722.69
2018-07-09T01:59:59.147Z,101729.48
2018-07-09T02:02:27.519Z,101733.14
2018-07-09T02:04:55.855Z,101732.63
2018-07-09T02:07:24.219Z,101738.59
2018-07-09T02:09:52.594Z,101731.77
2018-07-09T02:12:20.966Z,101736.94
2018-07-09T02:14:49.328Z,101741.56
2018-07-09T02:17:17.711Z,101735.56
2018-07-09T02:19:46.214Z,101734.54
2018-07-09T02:22:14.575Z,101733.52
2018-07-09T02:24:43.042Z,101731.17
2018-07-09T02:27:11.377Z,101736.30
2018-07-09T02:29:39.836Z,101735.14
2018-07-09T02:32:08.151Z,101740.08
2018-07-09T02:34:36.527Z,101731.61
2018-07-09T02:37:04.959Z,101729.47
2018-07-09T02:39:33.349Z,101731.16
2018-07-09T02:42:01.704Z,101728.81
2018-07-09T02:44:30.052Z,101720.65
2018-07-09T02:46:58.432Z,101724.22
2018-07-09T02:49:26.827Z,101716.22
2018-07-09T02:51:55.172Z,101724.81
2018-07-09T02:54:23.520Z,101726.45
2018-07-09T02:56:51.852Z,101717.78
2018-07-09T02:59:20.207Z,101726.55
2018-07-09T03:01:48.589Z,101726.86
2018-07-09T03:04:16.950Z,101732.80
2018-07-09T03:06:45.300Z,101737.28
2018-07-09T03:09:13.677Z,101740.74
2018-07-09T03:11:42.025Z,101740.91
2018-07-09T03:14:10.403Z,101748.70
2018-07-09T03:16:38.756Z,101753.19
2018-07-09T03:19:07.629Z,101751.86
2018-07-09T03:21:35.966Z,101748.87
2018-07-09T03:24:04.294Z,101746.72
2018-07-09T03:26:32.589Z,101745.89
2018-07-09T03:29:00.907Z,101746.84
2018-07-09T03:31:29.233Z,101747.77
2018-07-09T03:33:57.607Z,101754.88
2018-07-09T03:36:25.954Z,101760.36
2018-07-09T03:38:54.294Z,101755.71
2018-07-09T03:41:22.646Z,101758.03
2018-07-09T03:43:51.012Z,101753.94
2018-07-09T03:46:19.401Z,101763.09
2018-07-09T03:48:47.767Z,101759.82
2018-07-09T03:51:16.104Z,101763.07
2018-07-09T03:53:44.712Z,101769.42
2018-07-09T03:56:13.098Z,101774.75
2018-07-09T03:58:41.468Z,101776.41
2018-07-09T04:01:09.810Z,101774.77
2018-07-09T04:03:38.172Z,101772.00
2018-07-09T04:06:06.556Z,101770.02
2018-07-09T04:08:34.878Z,101768.80
2018-07-09T04:11:03.239Z,101761.63
2018-07-09T04:13:31.584Z,101770.21
2018-07-09T04:15:59.927Z,101754.41
2018-07-09T04:18:28.286Z,101765.20
2018-07-09T04:20:57.228Z,101769.27
2018-07-09T04:23:25.512Z,101775.62
2018-07-09T04:25:53.872Z,101780.55
2018-07-09T04:28:22.580Z,101778.60
2018-07-09T04:30:51.191Z,101780.77
2018-07-09T04:33:20.111Z,101781.77
2018-07-09T04:35:48.576Z,101775.92
2018-07-09T04:38:16.912Z,101774.55
2018-07-09T04:40:45.279Z,101774.91
2018-07-09T04:43:13.672Z,101775.73
2018-07-09T04:45:42.031Z,101776.56
2018-07-09T04:48:10.363Z,101777.91
2018-07-09T04:50:38.735Z,101785.38
2018-07-09T04:53:07.074Z,101788.31
2018-07-09T04:55:35.385Z,101783.23
2018-07-09T04:58:03.743Z,101790.03
2018-07-09T05:00:32.249Z,101788.11
2018-07-09T05:03:00.741Z,101784.69
2018-07-09T05:05:29.225Z,101789.36
2018-07-09T05:07:57.839Z,101789.36
2018-07-09T05:10:26.507Z,101787.50
2018-07-09T05:12:54.866Z,101799.11
2018-07-09T05:15:23.202Z,101793.69
2018-07-09T05:17:51.548Z,101791.11
2018-07-09T05:20:19.883Z,101783.41
2018-07-09T05:22:48.211Z,101784.23
2018-07-09T05:25:16.561Z,101779.28
2018-07-09T05:27:44.895Z,101783.27
2018-07-09T05:30:13.265Z,101783.77
2018-07-09T05:32:41.590Z,101779.84
2018-07-09T05:35:09.971Z,101777.66
2018-07-09T05:37:38.300Z,101776.73
2018-07-09T05:40:07.195Z,101782.34
2018-07-09T05:42:36.823Z,101782.79
2018-07-09T05:45:05.650Z,101784.15
2018-07-09T05:47:34.899Z,101788.47
2018-07-09T05:50:03.272Z,101782.37
2018-07-09T05:52:31.621Z,101781.54
2018-07-09T05:55:00.013Z,101778.59
2018-07-09T05:57:28.387Z,101772.33
2018-07-09T05:59:56.726Z,101768.35
2018-07-09T06:02:25.055Z,101771.11
2018-07-09T06:04:53.478Z,101774.28
2018-07-09T06:07:21.796Z,101772.44
2018-07-09T06:09:50.164Z,101773.16
2018-07-09T06:12:18.540Z,101768.85
2018-07-09T06:14:46.910Z,101775.03
2018-07-09T06:17:15.273Z,101763.70
2018-07-09T06:19:43.788Z,101769.83
2018-07-09T06:22:12.086Z,101766.14
2018-07-09T06:24:40.428Z,101762.81
2018-07-09T06:27:08.770Z,101761.94
2018-07-09T06:29:37.219Z,101767.85
2018-07-09T06:32:05.559Z,101766.66
2018-07-09T06:34:34.009Z,101772.25
2018-07-09T06:37:02.335Z,101772.59
2018-07-09T06:39:30.661Z,101769.55
2018-07-09T06:41:59.002Z,101767.14
2018-07-09T06:44:27.395Z,101772.78
2018-07-09T06:46:55.791Z,101773.39
2018-07-09T06:49:24.206Z,101770.92
2018-07-09T06:51:52.501Z,101777.77
2018-07-09T06:54:20.883Z,101768.72
2018-07-09T06:56:49.214Z,101780.35
2018-07-09T06:59:17.561Z,101780.45
2018-07-09T07:01:45.891Z,101791.08
2018-07-09T07:04:14.232Z,101791.83
2018-07-09T07:06:42.696Z,101779.98
2018-07-09T07:09:11.106Z,101789.12
2018-07-09T07:11:39.473Z,101786.09
2018-07-09T07:14:07.824Z,101783.39
2018-07-09T07:16:36.158Z,101781.73
2018-07-09T07:19:04.537Z,101777.38
2018-07-09T07:21:32.873Z,101775.19
2018-07-09T07:24:01.352Z,101769.34
2018-07-09T07:26:29.699Z,101762.96
2018-07-09T07:28:58.050Z,101756.63
2018-07-09T07:31:26.431Z,101758.38
2018-07-09T07:33:54.796Z,101763.67
2018-07-09T07:36:23.258Z,101763.30
2018-07-09T07:38:51.742Z,101762.09
2018-07-09T07:41:20.089Z,101770.67
2018-07-09T07:43:48.570Z,101774.49
2018-07-09T07:46:17.280Z,101776.44
2018-07-09T07:48:45.784Z,101782.97
2018-07-09T07:51:14.148Z,101765.50
2018-07-09T07:53:42.564Z,101770.38
2018-07-09T07:56:10.952Z,101764.89
2018-07-09T07:58:39.285Z,101757.67
2018-07-09T08:01:07.629Z,101756.45
2018-07-09T08:03:35.988Z,101757.31
2018-07-09T08:06:05.041Z,101753.50
2018-07-09T08:08:33.329Z,101751.81
2018-07-09T08:11:10.910Z,101749.32
2018-07-09T08:13:30.009Z,101736.11
2018-07-09T08:15:58.449Z,101737.98
2018-07-09T08:18:26.827Z,101735.78
2018-07-09T08:20:55.195Z,101727.94
2018-07-09T08:23:23.557Z,101731.45
2018-07-09T08:25:51.935Z,101725.18
2018-07-09T08:28:20.290Z,101727.43
2018-07-09T08:30:48.628Z,101732.44
2018-07-09T08:33:17.006Z,101732.88
2018-07-09T08:35:45.340Z,101728.11
2018-07-09T08:38:13.672Z,101727.99
2018-07-09T08:40:42.556Z,101728.93
2018-07-09T08:43:10.897Z,101728.77
2018-07-09T08:45:39.264Z,101721.49
2018-07-09T08:48:07.593Z,101725.55
2018-07-09T08:50:35.982Z,101722.23
2018-07-09T08:53:04.308Z,101710.56
2018-07-09T08:55:32.651Z,101712.18
2018-07-09T08:58:01.040Z,101712.77
2018-07-09T09:00:29.426Z,101706.66
2018-07-09T09:02:57.821Z,101695.83
2018-07-09T09:05:26.157Z,101701.52
2018-07-09T09:07:54.517Z,101704.59
2018-07-09T09:10:22.899Z,101699.17
2018-07-09T09:12:51.215Z,101693.10
2018-07-09T09:15:19.546Z,101695.29
2018-07-09T09:17:47.931Z,101695.47
2018-07-09T09:20:16.295Z,101700.12
2018-07-09T09:22:44.661Z,101694.03
2018-07-09T09:25:13.031Z,101695.05
2018-07-09T09:27:41.379Z,101694.19
2018-07-09T09:30:09.756Z,101698.23
2018-07-09T09:32:38.107Z,101702.33
2018-07-09T09:35:06.471Z,101695.25
2018-07-09T09:37:34.962Z,101687.37
2018-07-09T09:40:03.346Z,101683.52
2018-07-09T09:42:31.688Z,101684.87
2018-07-09T09:45:00.093Z,101684.86
2018-07-09T09:47:28.444Z,101692.86
2018-07-09T09:49:56.771Z,101686.34
2018-07-09T09:52:25.086Z,101690.87
2018-07-09T09:54:53.502Z,101687.30
2018-07-09T09:57:21.808Z,101691.78
2018-07-09T09:59:50.188Z,101684.48
2018-07-09T10:02:18.586Z,101685.45
2018-07-09T10:04:47.063Z,101695.06
2018-07-09T10:07:15.381Z,101687.36
2018-07-09T10:09:43.721Z,101682.60
2018-07-09T10:12:12.111Z,101677.85
2018-07-09T10:14:40.459Z,101669.13
2018-07-09T10:17:08.807Z,101675.44
2018-07-09T10:19:37.130Z,101672.16
2018-07-09T10:22:06.233Z,101671.38
2018-07-09T10:24:34.600Z,101681.95
2018-07-09T10:27:02.960Z,101682.66
2018-07-09T10:29:31.398Z,101686.77
2018-07-09T10:31:59.741Z,101682.28
2018-07-09T10:34:28.063Z,101681.52
2018-07-09T10:36:56.381Z,101688.10
2018-07-09T10:39:24.728Z,101679.86
2018-07-09T10:41:53.086Z,101675.00
2018-07-09T10:44:21.427Z,101682.88
2018-07-09T10:46:49.753Z,101680.63
2018-07-09T10:49:18.166Z,101676.07
2018-07-09T10:51:46.473Z,101675.69
2018-07-09T10:54:14.923Z,101669.47
2018-07-09T10:56:43.286Z,101668.57
2018-07-09T10:59:11.654Z,101660.55
2018-07-09T11:01:40.029Z,101663.61
2018-07-09T11:04:08.413Z,101666.84
2018-07-09T11:06:36.713Z,101664.80
2018-07-09T11:09:06.990Z,101657.55
2018-07-09T11:11:35.945Z,101656.81
2018-07-09T11:14:04.342Z,101655.70
2018-07-09T11:16:32.703Z,101653.89
2018-07-09T11:19:01.061Z,101647.63
2018-07-09T11:21:29.434Z,101652.92
2018-07-09T11:23:57.805Z,101648.31
2018-07-09T11:26:26.133Z,101650.67
2018-07-09T11:28:54.504Z,101653.86
2018-07-09T11:31:22.857Z,101660.77
2018-07-09T11:33:51.311Z,101660.56
2018-07-09T11:36:19.662Z,101654.39
2018-07-09T11:38:48.093Z,101655.30
2018-07-09T11:41:16.410Z,101654.45
2018-07-09T11:43:44.777Z,101654.19
2018-07-09T11:46:13.097Z,101659.83
2018-07-09T11:48:41.967Z,101657.92
2018-07-09T11:51:10.281Z,101662.73
2018-07-09T11:53:38.631Z,101664.52
2018-07-09T11:56:06.957Z,101660.23
2018-07-09T11:58:35.415Z,101666.86
2018-07-09T12:01:03.744Z,101663.00
2018-07-09T12:03:32.077Z,101662.41
2018-07-09T12:06:00.429Z,101658.49
2018-07-09T12:08:28.758Z,101659.31
2018-07-09T12:10:57.157Z,101655.16
2018-07-09T12:13:25.614Z,101654.36
2018-07-09T12:15:54.125Z,101652.19
2018-07-09T12:18:22.471Z,101646.46
2018-07-09T12:20:50.804Z,101642.81
2018-07-09T12:23:19.203Z,101633.59
2018-07-09T12:25:47.597Z,101637.37
2018-07-09T12:28:16.077Z,101631.22
2018-07-09T12:30:44.399Z,101632.94
2018-07-09T12:33:12.727Z,101628.73
2018-07-09T12:35:41.012Z,101627.27
2018-07-09T12:38:09.733Z,101625.12
2018-07-09T12:40:38.071Z,101624.91
2018-07-09T12:43:06.418Z,101625.04
2018-07-09T12:45:34.793Z,101619.02
2018-07-09T12:48:03.158Z,101617.19
2018-07-09T12:50:31.497Z,101618.45
2018-07-09T12:52:59.855Z,101615.22
2018-07-09T12:55:28.237Z,101612.33
2018-07-09T12:57:56.623Z,101610.19
2018-07-09T13:00:24.963Z,101607.75
2018-07-09T13:02:53.328Z,101614.24
2018-07-09T13:05:21.691Z,101622.16
2018-07-09T13:07:50.012Z,101610.16
2018-07-09T13:10:18.345Z,101606.84
2018-07-09T13:12:46.706Z,101600.59
2018-07-09T13:15:15.027Z,101604.33
2018-07-09T13:17:43.383Z,101599.63
2018-07-09T13:20:11.761Z,101594.83
2018-07-09T13:22:40.102Z,101596.22
2018-07-09T13:25:08.469Z,101596.70
2018-07-09T13:27:36.829Z,101595.18
2018-07-09T13:30:05.611Z,101593.42
2018-07-09T13:32:34.298Z,101591.02
2018-07-09T13:35:02.639Z,101583.47
2018-07-09T13:37:31.030Z,101580.62
2018-07-09T13:39:59.476Z,101570.79
2018-07-09T13:42:27.863Z,101574.98
2018-07-09T13:44:56.186Z,101569.35
2018-07-09T13:47:24.546Z,101567.50
2018-07-09T13:49:52.914Z,101575.34
2018-07-09T13:52:21.260Z,101573.55
2018-07-09T13:54:49.683Z,101570.48
2018-07-09T13:57:18.074Z,101565.54
2018-07-09T13:59:46.468Z,101560.39
2018-07-09T14:02:14.909Z,101560.06
2018-07-09T14:04:43.251Z,101551.94
2018-07-09T14:07:11.599Z,101546.06
2018-07-09T14:09:40.122Z,101552.08
2018-07-09T14:12:08.498Z,101548.14
2018-07-09T14:14:36.828Z,101540.16
2018-07-09T14:17:05.187Z,101535.31
2018-07-09T14:20:41.259Z,101536.09
2018-07-09T14:23:10.594Z,101534.45
2018-07-09T14:25:39.176Z,101528.16
2018-07-09T14:28:07.717Z,101522.59
2018-07-09T14:30:36.245Z,101518.61
2018-07-09T14:33:04.813Z,101515.67
2018-07-09T14:35:33.200Z,101515.48
2018-07-09T14:38:01.650Z,101512.64
2018-07-09T14:40:30.038Z,101515.63
2018-07-09T14:42:58.420Z,101508.08
2018-07-09T14:45:26.774Z,101502.99
2018-07-09T14:47:55.132Z,101501.45
2018-07-09T14:50:23.786Z,101496.59
2018-07-09T14:52:52.372Z,101502.08
2018-07-09T14:55:20.705Z,101494.91
2018-07-09T14:57:49.020Z,101495.75
2018-07-09T15:00:17.380Z,101496.75
2018-07-09T15:02:45.745Z,101500.64
2018-07-09T15:05:14.152Z,101497.30
2018-07-09T15:07:42.597Z,101501.17
2018-07-09T15:10:11.003Z,101503.30
2018-07-09T15:12:39.375Z,101500.98
2018-07-09T15:15:07.705Z,101500.47
2018-07-09T15:17:36.064Z,101502.80
2018-07-09T15:20:04.582Z,101500.91
2018-07-09T15:22:32.886Z,101498.84
2018-07-09T15:25:01.218Z,101488.61
2018-07-09T15:27:29.546Z,101491.19
2018-07-09T15:29:57.888Z,101497.28
2018-07-09T15:32:27.442Z,101490.17
2018-07-09T15:34:55.801Z,101483.40
2018-07-09T15:37:24.130Z,101485.45
2018-07-09T15:39:52.684Z,101478.95
2018-07-09T15:42:21.053Z,101473.77
2018-07-09T15:44:49.550Z,101477.00
2018-07-09T15:47:17.852Z,101471.56
2018-07-09T15:49:46.209Z,101462.76
2018-07-09T15:52:14.796Z,101455.35
2018-07-09T15:54:43.263Z,101451.19
2018-07-09T15:57:11.981Z,101455.05
2018-07-09T15:59:40.442Z,101446.52
2018-07-09T16:02:08.765Z,101443.96
2018-07-09T16:04:37.117Z,101444.20
2018-07-09T16:07:05.543Z,101440.61
2018-07-09T16:09:33.879Z,101441.46
2018-07-09T16:12:02.313Z,101447.56
2018-07-09T16:14:30.654Z,101435.91
2018-07-09T16:16:58.958Z,101426.02
2018-07-09T16:19:27.303Z,101426.42
2018-07-09T16:21:55.652Z,101424.72
2018-07-09T16:24:24.028Z,101422.36
2018-07-09T16:26:52.378Z,101427.79
2018-07-09T16:29:20.809Z,101424.23
2018-07-09T16:31:49.083Z,101423.73
2018-07-09T16:34:17.389Z,101420.30
2018-07-09T16:36:45.790Z,101428.81
2018-07-09T16:39:14.114Z,101427.84
2018-07-09T16:41:42.442Z,101429.53
2018-07-09T16:44:10.929Z,101423.08
2018-07-09T16:46:39.617Z,101424.25
2018-07-09T16:49:07.980Z,101427.14
2018-07-09T16:51:36.362Z,101422.30
2018-07-09T16:54:04.764Z,101427.13
2018-07-09T16:56:33.112Z,101422.14
2018-07-09T16:59:01.458Z,101428.83
2018-07-09T17:01:29.804Z,101419.75
2018-07-09T17:03:58.155Z,101421.83
2018-07-09T17:06:26.539Z,101417.09
2018-07-09T17:08:54.886Z,101415.29
2018-07-09T17:11:23.237Z,101418.38
2018-07-09T17:13:51.601Z,101409.38
2018-07-09T17:16:19.974Z,101403.05
2018-07-09T17:18:48.331Z,101397.27
2018-07-09T17:21:16.667Z,101397.64
2018-07-09T17:23:45.025Z,101396.47
2018-07-09T17:26:13.331Z,101393.36
2018-07-09T17:28:41.682Z,101391.00
2018-07-09T17:31:10.056Z,101394.85
2018-07-09T17:33:38.386Z,101396.32
2018-07-09T17:36:06.716Z,101396.17
2018-07-09T17:38:35.062Z,101388.58
2018-07-09T17:41:03.427Z,101383.14
2018-07-09T17:43:31.739Z,101382.16
2018-07-09T17:46:00.075Z,101389.39
2018-07-09T17:48:28.401Z,101386.91
2018-07-09T17:50:56.714Z,101380.79
2018-07-09T17:53:25.087Z,101377.19
2018-07-09T17:55:53.520Z,101368.60
2018-07-09T17:58:21.997Z,101376.14
2018-07-09T18:00:50.373Z,101375.84
2018-07-09T18:03:18.728Z,101373.45
2018-07-09T18:05:47.194Z,101376.50
2018-07-09T18:08:15.502Z,101380.28
2018-07-09T18:10:43.850Z,101382.14
2018-07-09T18:13:12.186Z,101381.53
2018-07-09T18:15:40.562Z,101377.62
2018-07-09T18:18:08.929Z,101376.59
2018-07-09T18:20:37.235Z,101372.91
2018-07-09T18:23:06.040Z,101387.25
2018-07-09T18:25:34.465Z,101379.10
2018-07-09T18:28:02.777Z,101381.16
2018-07-09T18:30:31.136Z,101387.75
2018-07-09T18:32:59.577Z,101384.36
2018-07-09T18:35:27.900Z,101393.56
2018-07-09T18:37:56.187Z,101382.72
2018-07-09T18:40:24.521Z,101390.03
2018-07-09T18:42:52.861Z,101386.63
2018-07-09T18:45:21.195Z,101395.97
2018-07-09T18:47:49.507Z,101391.85
2018-07-09T18:50:17.848Z,101392.03
2018-07-09T18:52:46.167Z,101388.73
2018-07-09T18:55:14.570Z,101390.06
2018-07-09T18:57:42.927Z,101385.30
2018-07-09T19:00:11.285Z,101376.45
2018-07-09T19:02:39.629Z,101377.27
2018-07-09T19:05:07.965Z,101382.20
2018-07-09T19:07:36.306Z,101374.38
2018-07-09T19:10:04.774Z,101377.23
2018-07-09T19:12:33.185Z,101378.86
2018-07-09T19:15:01.560Z,101373.06
2018-07-09T19:18:08.803Z,101377.66
2018-07-09T19:21:17.548Z,101379.84
2018-07-09T19:23:44.734Z,101380.84
2018-07-09T19:26:11.988Z,101391.85
2018-07-09T19:28:39.211Z,101390.85
2018-07-09T19:31:06.429Z,101392.98
2018-07-09T19:33:33.688Z,101394.70
2018-07-09T19:36:01.056Z,101397.44
2018-07-09T19:38:28.267Z,101401.02
2018-07-09T19:40:55.461Z,101406.80
2018-07-09T19:43:22.797Z,101404.05
2018-07-09T19:45:50.221Z,101409.16
2018-07-09T19:48:17.405Z,101403.25
2018-07-09T19:50:44.890Z,101404.41
2018-07-09T19:53:12.112Z,101405.21
2018-07-09T19:55:39.892Z,101406.93
2018-07-09T19:58:07.092Z,101411.84
2018-07-09T20:00:35.181Z,101406.06
2018-07-09T20:03:02.402Z,101408.25
2018-07-09T20:05:29.912Z,101409.25
2018-07-09T20:07:57.116Z,101412.57
2018-07-09T20:10:29.696Z,101408.17
2018-07-09T20:13:02.184Z,101410.20
2018-07-09T20:15:34.774Z,101400.85
2018-07-09T20:18:02.167Z,101403.52
2018-07-09T20:20:29.681Z,101407.31
2018-07-09T20:22:57.082Z,101406.41
2018-07-09T20:25:24.301Z,101408.83
2018-07-09T20:27:51.702Z,101404.28
2018-07-09T20:30:18.868Z,101405.02
2018-07-09T20:32:46.381Z,101401.70
2018-07-09T20:35:13.745Z,101404.10
2018-07-09T20:37:40.946Z,101392.67
2018-07-09T20:40:08.162Z,101394.18
2018-07-09T20:42:35.367Z,101402.63
2018-07-09T20:45:02.606Z,101395.89
2018-07-09T20:47:29.814Z,101393.48
2018-07-09T20:49:56.997Z,101390.62
2018-07-09T20:52:24.195Z,101390.89
2018-07-09T20:54:51.411Z,101394.00
2018-07-09T20:57:18.597Z,101394.14
2018-07-09T20:59:45.794Z,101399.34
2018-07-09T21:02:13.004Z,101392.80
2018-07-09T21:04:40.232Z,101396.47
2018-07-09T21:07:07.431Z,101395.13
2018-07-09T21:09:34.765Z,101398.32
2018-07-09T21:12:04.657Z,101395.06
2018-07-09T21:14:31.860Z,101391.11
2018-07-09T21:16:59.061Z,101395.80
2018-07-09T21:19:26.431Z,101394.67
2018-07-09T21:21:53.636Z,101389.94
2018-07-09T21:24:20.834Z,101381.65
2018-07-09T21:26:48.038Z,101390.31
2018-07-09T21:29:15.223Z,101387.02
2018-07-09T21:31:42.437Z,101390.91
2018-07-09T21:34:09.613Z,101394.17
2018-07-09T21:36:36.815Z,101402.66
2018-07-09T21:39:04.709Z,101398.09
2018-07-09T21:41:31.915Z,101398.63
2018-07-09T21:43:59.111Z,101401.30
2018-07-09T21:46:26.285Z,101400.08
2018-07-09T21:48:53.496Z,101391.59
2018-07-09T21:51:20.712Z,101390.97
2018-07-09T21:53:47.913Z,101388.45
2018-07-09T21:56:15.104Z,101393.11
2018-07-09T21:58:42.298Z,101382.78
2018-07-09T22:01:09.565Z,101387.06
2018-07-09T22:03:36.736Z,101382.91
2018-07-09T22:06:03.968Z,101381.08
2018-07-09T22:08:31.154Z,101380.41
2018-07-09T22:10:58.372Z,101383.22
2018-07-09T22:13:25.548Z,101374.68
2018-07-09T22:15:52.739Z,101378.47
2018-07-09T22:18:19.938Z,101381.24
2018-07-09T22:20:47.109Z,101381.75
2018-07-09T22:23:14.307Z,101378.16
2018-07-09T22:25:41.538Z,101375.97
2018-07-09T22:28:08.739Z,101385.18
2018-07-09T22:30:37.108Z,101391.01
2018-07-09T22:33:05.436Z,101388.19
2018-07-09T22:35:33.799Z,101383.96
2018-07-09T22:38:02.183Z,101389.08
2018-07-09T22:40:30.545Z,101383.55
2018-07-09T22:42:59.419Z,101389.39
2018-07-09T22:45:27.775Z,101384.17
2018-07-09T22:47:56.097Z,101377.02
2018-07-09T22:50:24.446Z,101375.55
2018-07-09T22:52:52.824Z,101371.09
2018-07-09T22:55:32.547Z,101370.94
2018-07-09T22:58:00.861Z,101375.72
2018-07-09T23:00:29.300Z,101375.21
2018-07-09T23:03:10.784Z,101371.60
2018-07-09T23:05:39.432Z,101367.81
2018-07-09T23:08:08.101Z,101373.45
2018-07-09T23:11:53.477Z,101362.80
2018-07-09T23:16:40.143Z,101367.30
2018-07-09T23:19:22.238Z,101354.45
2018-07-09T23:22:01.909Z,101357.43
2018-07-09T23:24:29.099Z,101358.95
2018-07-09T23:26:56.568Z,101348.19
2018-07-09T23:29:23.756Z,101355.88
2018-07-09T23:31:51.064Z,101350.55
2018-07-09T23:34:18.947Z,101338.97
2018-07-09T23:36:46.137Z,101344.53
2018-07-09T23:39:13.688Z,101350.06
2018-07-09T23:41:40.900Z,101348.92
2018-07-09T23:44:08.096Z,101334.16
2018-07-09T23:46:35.301Z,101339.77
2018-07-09T23:49:02.507Z,101347.40
2018-07-09T23:51:29.720Z,101340.23
2018-07-09T23:53:56.949Z,101324.21
2018-07-09T23:57:33.201Z,101315.55
